createdAt,value
2024-01-22T00:00:55.086Z,26.77
2024-01-22T00:01:55.033Z,26.76
2024-01-22T00:02:55.143Z,26.77
2024-01-22T00:03:55.158Z,26.76
2024-01-22T00:04:55.230Z,26.75
2024-01-22T00:05:55.383Z,26.78
2024-01-22T00:06:55.363Z,26.75
2024-01-22T00:07:55.369Z,26.76
2024-01-22T00:08:55.457Z,26.76
2024-01-22T00:09:55.511Z,26.73
2024-01-22T00:10:55.555Z,26.70
2024-01-22T00:11:55.675Z,26.71
2024-01-22T00:12:55.718Z,26.64
2024-01-22T00:13:55.775Z,26.69
2024-01-22T00:14:55.915Z,26.72
2024-01-22T00:15:55.916Z,26.73
2024-01-22T00:16:55.953Z,26.71
2024-01-22T00:17:56.089Z,26.71
2024-01-22T00:18:56.272Z,26.70
2024-01-22T00:19:56.250Z,26.72
2024-01-22T00:20:56.230Z,26.71
2024-01-22T00:21:56.273Z,26.71
2024-01-22T00:22:56.335Z,26.72
2024-01-22T00:23:56.414Z,26.71
2024-01-22T00:24:56.447Z,26.75
2024-01-22T00:25:56.502Z,26.74
2024-01-22T00:26:56.614Z,26.73
2024-01-22T00:27:56.736Z,26.71
2024-01-22T00:28:56.696Z,26.74
2024-01-22T00:29:56.777Z,26.72
2024-01-22T00:30:56.806Z,26.69
2024-01-22T00:31:56.845Z,26.70
2024-01-22T00:32:57.047Z,26.70
2024-01-22T00:33:57.043Z,26.73
2024-01-22T00:34:57.099Z,26.73
2024-01-22T00:35:57.116Z,26.75
2024-01-22T00:36:57.195Z,26.70
2024-01-22T00:37:57.268Z,26.70
2024-01-22T00:38:57.356Z,26.59
2024-01-22T00:39:57.375Z,26.65
2024-01-22T00:40:57.456Z,26.69
2024-01-22T00:41:57.518Z,26.67
2024-01-22T00:42:57.554Z,26.68
2024-01-22T00:43:57.608Z,26.70
2024-01-22T00:44:57.703Z,26.71
2024-01-22T00:45:57.697Z,26.71
2024-01-22T00:46:57.792Z,26.74
2024-01-22T00:47:57.892Z,26.70
2024-01-22T00:48:57.968Z,26.73
2024-01-22T00:49:57.976Z,26.74
2024-01-22T00:50:58.066Z,26.75
2024-01-22T00:51:58.098Z,26.75
2024-01-22T00:52:58.169Z,26.74
2024-01-22T00:53:58.297Z,26.73
2024-01-22T00:54:58.271Z,26.70
2024-01-22T00:55:58.347Z,26.72
2024-01-22T00:56:58.440Z,26.69
2024-01-22T00:57:58.446Z,26.72
2024-01-22T00:58:58.539Z,26.71
2024-01-22T00:59:58.690Z,26.70
2024-01-22T01:00:58.701Z,26.69
2024-01-22T01:01:58.753Z,26.67
2024-01-22T01:02:58.898Z,26.69
2024-01-22T01:03:58.877Z,26.68
2024-01-22T01:04:58.939Z,26.71
2024-01-22T01:05:58.990Z,26.68
2024-01-22T01:06:59.042Z,26.70
2024-01-22T01:07:59.108Z,26.70
2024-01-22T01:08:59.157Z,26.69
2024-01-22T01:09:59.188Z,26.67
2024-01-22T01:10:59.287Z,26.59
2024-01-22T01:11:59.394Z,26.69
2024-01-22T01:12:59.382Z,26.71
2024-01-22T01:13:59.431Z,26.70
2024-01-22T01:14:59.532Z,26.71
2024-01-22T01:15:59.579Z,26.57
2024-01-22T01:16:59.650Z,26.61
2024-01-22T01:17:59.847Z,26.67
2024-01-22T01:18:59.905Z,26.68
2024-01-22T01:19:59.841Z,26.65
2024-01-22T01:20:59.929Z,26.68
2024-01-22T01:21:59.955Z,26.66
2024-01-22T01:23:00.033Z,26.68
2024-01-22T01:24:00.156Z,26.70
2024-01-22T01:25:00.238Z,26.68
2024-01-22T01:26:00.233Z,26.69
2024-01-22T01:27:00.323Z,26.67
2024-01-22T01:28:00.411Z,26.67
2024-01-22T01:29:00.442Z,26.69
2024-01-22T01:30:00.619Z,26.70
2024-01-22T01:31:00.588Z,26.71
2024-01-22T01:32:00.659Z,26.73
2024-01-22T01:33:00.851Z,26.73
2024-01-22T01:34:00.938Z,26.72
2024-01-22T01:35:00.850Z,26.70
2024-01-22T01:36:00.931Z,26.71
2024-01-22T01:37:01.007Z,26.68
2024-01-22T01:38:01.077Z,26.68
2024-01-22T01:39:01.184Z,26.70
2024-01-22T01:40:01.268Z,26.69
2024-01-22T01:41:01.299Z,26.72
2024-01-22T01:42:01.438Z,26.70
2024-01-22T01:43:01.391Z,26.73
2024-01-22T01:44:01.476Z,26.68
2024-01-22T01:45:01.641Z,26.64
2024-01-22T01:46:01.666Z,26.64
2024-01-22T01:47:01.716Z,26.67
2024-01-22T01:48:01.882Z,26.66
2024-01-22T01:49:02.046Z,26.68
2024-01-22T01:50:01.942Z,26.70
2024-01-22T01:51:02.134Z,26.73
2024-01-22T01:52:02.067Z,26.69
2024-01-22T01:53:02.116Z,26.70
2024-01-22T01:54:02.230Z,26.66
2024-01-22T01:55:02.226Z,26.68
2024-01-22T01:56:02.332Z,26.69
2024-01-22T01:57:02.464Z,26.70
2024-01-22T01:58:05.846Z,26.71
2024-01-22T01:59:02.471Z,26.71
2024-01-22T02:00:02.681Z,26.71
2024-01-22T02:01:02.654Z,26.72
2024-01-22T02:02:02.471Z,26.67
2024-01-22T02:03:02.574Z,26.68
2024-01-22T02:04:02.514Z,26.70
2024-01-22T02:05:02.495Z,26.70
2024-01-22T02:06:02.575Z,26.68
2024-01-22T02:07:02.465Z,26.66
2024-01-22T02:08:02.493Z,26.66
2024-01-22T02:09:02.535Z,26.66
2024-01-22T02:10:02.466Z,26.66
2024-01-22T02:11:02.468Z,26.59
2024-01-22T02:12:02.542Z,26.69
2024-01-22T02:13:02.483Z,26.68
2024-01-22T02:14:02.473Z,26.68
2024-01-22T02:15:02.487Z,26.68
2024-01-22T02:16:02.511Z,26.71
2024-01-22T02:17:02.493Z,26.71
2024-01-22T02:18:02.668Z,26.71
2024-01-22T02:19:02.555Z,26.70
2024-01-22T02:20:02.477Z,26.73
2024-01-22T02:21:02.541Z,26.72
2024-01-22T02:22:02.589Z,26.73
2024-01-22T02:23:02.625Z,26.74
2024-01-22T02:24:02.742Z,26.73
2024-01-22T02:25:02.773Z,26.72
2024-01-22T02:26:02.834Z,26.71
2024-01-22T02:27:02.986Z,26.75
2024-01-22T02:28:03.193Z,26.76
2024-01-22T02:29:03.079Z,26.73
2024-01-22T02:30:03.142Z,26.73
2024-01-22T02:31:03.197Z,26.70
2024-01-22T02:32:03.275Z,26.72
2024-01-22T02:33:03.457Z,26.75
2024-01-22T02:34:03.585Z,26.74
2024-01-22T02:35:03.460Z,26.77
2024-01-22T02:36:04.224Z,26.76
2024-01-22T02:37:03.622Z,26.78
2024-01-22T02:38:03.686Z,26.80
2024-01-22T02:39:03.767Z,26.78
2024-01-22T02:40:03.787Z,26.80
2024-01-22T02:41:03.885Z,26.81
2024-01-22T02:42:03.996Z,26.81
2024-01-22T02:43:03.971Z,26.80
2024-01-22T02:44:04.061Z,26.79
2024-01-22T02:45:04.251Z,26.81
2024-01-22T02:46:04.187Z,26.79
2024-01-22T02:47:04.279Z,26.79
2024-01-22T02:48:04.460Z,26.79
2024-01-22T02:49:04.569Z,26.80
2024-01-22T02:50:04.484Z,26.80
2024-01-22T02:51:04.559Z,26.78
2024-01-22T02:52:04.632Z,26.74
2024-01-22T02:53:04.654Z,26.79
2024-01-22T02:54:04.835Z,26.80
2024-01-22T02:55:04.821Z,26.79
2024-01-22T02:56:04.900Z,26.79
2024-01-22T02:57:05.020Z,26.77
2024-01-22T02:58:05.036Z,26.81
2024-01-22T02:59:05.137Z,26.81
2024-01-22T03:00:05.255Z,26.85
2024-01-22T03:01:05.336Z,26.84
2024-01-22T03:02:05.329Z,26.84
2024-01-22T03:03:05.407Z,26.82
2024-01-22T03:04:05.501Z,26.85
2024-01-22T03:05:05.557Z,26.81
2024-01-22T03:06:05.677Z,26.84
2024-01-22T03:07:05.756Z,26.83
2024-01-22T03:08:05.726Z,26.82
2024-01-22T03:09:05.825Z,26.83
2024-01-22T03:10:06.607Z,26.83
2024-01-22T03:11:05.973Z,26.85
2024-01-22T03:12:06.111Z,26.84
2024-01-22T03:13:06.054Z,26.83
2024-01-22T03:14:06.158Z,26.84
2024-01-22T03:15:06.317Z,26.83
2024-01-22T03:16:06.325Z,26.83
2024-01-22T03:17:06.372Z,26.84
2024-01-22T03:18:06.521Z,26.83
2024-01-22T03:19:06.660Z,26.86
2024-01-22T03:20:06.574Z,26.86
2024-01-22T03:21:06.733Z,26.87
2024-01-22T03:22:06.709Z,26.88
2024-01-22T03:23:06.759Z,26.88
2024-01-22T03:24:06.851Z,26.89
2024-01-22T03:25:06.850Z,26.90
2024-01-22T03:26:06.955Z,26.88
2024-01-22T03:27:07.068Z,26.85
2024-01-22T03:28:07.044Z,26.86
2024-01-22T03:29:07.137Z,26.84
2024-01-22T03:30:07.283Z,26.83
2024-01-22T03:31:07.246Z,26.83
2024-01-22T03:32:07.317Z,26.84
2024-01-22T03:33:07.443Z,26.85
2024-01-22T03:34:07.537Z,26.83
2024-01-22T03:35:07.459Z,26.82
2024-01-22T03:36:07.543Z,26.82
2024-01-22T03:37:07.590Z,26.83
2024-01-22T03:38:07.629Z,26.82
2024-01-22T03:39:10.222Z,26.83
2024-01-22T03:40:07.713Z,26.82
2024-01-22T03:41:07.685Z,26.81
2024-01-22T03:42:07.740Z,26.83
2024-01-22T03:43:07.708Z,26.85
2024-01-22T03:44:07.685Z,26.82
2024-01-22T03:45:07.765Z,26.82
2024-01-22T03:46:07.718Z,26.81
2024-01-22T03:47:07.677Z,26.82
2024-01-22T03:48:07.794Z,26.81
2024-01-22T03:49:07.808Z,26.83
2024-01-22T03:50:07.765Z,26.83
2024-01-22T03:51:07.777Z,26.83
2024-01-22T03:52:07.719Z,26.82
2024-01-22T03:53:07.695Z,26.81
2024-01-22T03:54:07.740Z,26.83
2024-01-22T03:55:07.700Z,26.82
2024-01-22T03:56:07.727Z,26.83
2024-01-22T03:57:07.793Z,26.81
2024-01-22T03:58:07.737Z,26.82
2024-01-22T03:59:07.705Z,26.83
2024-01-22T04:00:07.757Z,26.80
2024-01-22T04:01:07.771Z,26.83
2024-01-22T04:02:07.713Z,26.81
2024-01-22T04:03:07.774Z,26.84
2024-01-22T04:04:07.755Z,26.82
2024-01-22T04:05:07.735Z,26.81
2024-01-22T04:06:07.833Z,26.83
2024-01-22T04:07:07.829Z,26.80
2024-01-22T04:08:07.723Z,26.80
2024-01-22T04:09:07.747Z,26.83
2024-01-22T04:10:07.724Z,26.82
2024-01-22T04:11:07.712Z,26.82
2024-01-22T04:12:07.771Z,26.82
2024-01-22T04:13:07.744Z,26.80
2024-01-22T04:14:07.769Z,26.80
2024-01-22T04:15:07.857Z,26.82
2024-01-22T04:16:07.913Z,26.78
2024-01-22T04:17:07.973Z,26.76
2024-01-22T04:18:08.218Z,26.78
2024-01-22T04:19:08.229Z,26.79
2024-01-22T04:20:08.212Z,26.78
2024-01-22T04:21:08.299Z,26.73
2024-01-22T04:22:08.333Z,26.71
2024-01-22T04:23:08.416Z,26.70
2024-01-22T04:24:08.576Z,26.65
2024-01-22T04:25:08.524Z,26.68
2024-01-22T04:26:08.570Z,26.65
2024-01-22T04:27:08.704Z,26.67
2024-01-22T04:28:08.694Z,26.61
2024-01-22T04:29:08.728Z,26.54
2024-01-22T04:30:08.835Z,26.61
2024-01-22T04:31:08.878Z,26.58
2024-01-22T04:32:09.006Z,26.50
2024-01-22T04:33:09.115Z,26.56
2024-01-22T04:34:09.086Z,26.55
2024-01-22T04:35:09.048Z,26.53
2024-01-22T04:36:09.168Z,26.54
2024-01-22T04:37:09.140Z,26.55
2024-01-22T04:38:09.209Z,26.53
2024-01-22T04:39:09.254Z,26.58
2024-01-22T04:40:09.287Z,26.48
2024-01-22T04:41:09.361Z,26.52
2024-01-22T04:42:09.422Z,26.49
2024-01-22T04:43:09.444Z,26.32
2024-01-22T04:44:09.471Z,26.26
2024-01-22T04:45:09.605Z,26.52
2024-01-22T04:46:09.532Z,26.47
2024-01-22T04:47:09.590Z,26.44
2024-01-22T04:48:16.981Z,26.44
2024-01-22T04:49:16.951Z,26.57
2024-01-22T04:50:16.911Z,26.52
2024-01-22T04:51:16.967Z,26.43
2024-01-22T04:52:16.931Z,26.44
2024-01-22T04:53:16.902Z,26.45
2024-01-22T04:54:16.957Z,26.46
2024-01-22T04:55:21.173Z,26.40
2024-01-22T04:56:17.921Z,26.37
2024-01-22T04:57:16.969Z,26.29
2024-01-22T04:58:16.956Z,26.30
2024-01-22T04:59:16.944Z,26.33
2024-01-22T05:00:16.957Z,26.32
2024-01-22T05:01:16.961Z,26.38
2024-01-22T05:02:16.925Z,26.28
2024-01-22T05:03:17.044Z,26.39
2024-01-22T05:04:16.993Z,26.28
2024-01-22T05:05:17.097Z,26.34
2024-01-22T05:06:17.037Z,26.63
2024-01-22T05:07:16.896Z,26.38
2024-01-22T05:08:16.925Z,26.48
2024-01-22T05:09:16.965Z,26.23
2024-01-22T05:10:16.947Z,26.18
2024-01-22T05:11:16.924Z,25.93
2024-01-22T05:12:16.952Z,26.12
2024-01-22T05:13:16.932Z,26.24
2024-01-22T05:14:16.910Z,26.41
2024-01-22T05:15:17.123Z,26.21
2024-01-22T05:16:16.916Z,26.36
2024-01-22T05:17:16.938Z,26.12
2024-01-22T05:18:17.568Z,26.23
2024-01-22T05:19:17.062Z,26.14
2024-01-22T05:20:16.969Z,26.34
2024-01-22T05:21:17.092Z,26.36
2024-01-22T05:22:17.032Z,25.98
2024-01-22T05:23:17.058Z,26.07
2024-01-22T05:24:17.173Z,26.17
2024-01-22T05:25:17.045Z,26.30
2024-01-22T05:26:17.083Z,25.89
2024-01-22T05:27:17.227Z,26.09
2024-01-22T05:28:17.135Z,26.30
2024-01-22T05:29:17.126Z,26.18
2024-01-22T05:30:17.280Z,26.19
2024-01-22T05:31:17.170Z,26.08
2024-01-22T05:32:17.203Z,26.11
2024-01-22T05:33:17.277Z,26.20
2024-01-22T05:34:17.334Z,26.19
2024-01-22T05:35:17.217Z,26.36
2024-01-22T05:36:17.352Z,26.35
2024-01-22T05:37:17.246Z,26.39
2024-01-22T05:38:17.281Z,26.18
2024-01-22T05:39:17.333Z,26.31
2024-01-22T05:40:17.264Z,25.96
2024-01-22T05:41:17.268Z,25.95
2024-01-22T05:42:17.335Z,26.12
2024-01-22T05:43:17.333Z,26.18
2024-01-22T05:44:18.017Z,26.14
2024-01-22T05:45:17.485Z,26.24
2024-01-22T05:46:17.319Z,26.17
2024-01-22T05:47:17.336Z,26.35
2024-01-22T05:48:17.550Z,26.18
2024-01-22T05:49:17.477Z,26.13
2024-01-22T05:50:17.350Z,26.17
2024-01-22T05:51:17.485Z,26.35
2024-01-22T05:52:17.412Z,26.44
2024-01-22T05:53:17.452Z,26.59
2024-01-22T05:54:17.422Z,27.77
2024-01-22T05:55:19.483Z,28.20
2024-01-22T05:56:17.495Z,28.51
2024-01-22T05:57:17.581Z,28.83
2024-01-22T05:58:17.582Z,29.12
2024-01-22T05:59:17.613Z,30.01
2024-01-22T06:00:17.737Z,30.52
2024-01-22T06:01:18.781Z,30.86
2024-01-22T06:02:17.799Z,31.06
2024-01-22T06:03:17.946Z,31.37
2024-01-22T06:04:17.994Z,31.74
2024-01-22T06:05:17.941Z,32.18
2024-01-22T06:06:18.059Z,32.37
2024-01-22T06:07:18.133Z,32.57
2024-01-22T06:08:18.096Z,32.97
2024-01-22T06:09:18.251Z,33.10
2024-01-22T06:10:18.300Z,33.37
2024-01-22T06:11:18.199Z,33.77
2024-01-22T06:12:18.305Z,33.98
2024-01-22T06:13:18.260Z,34.38
2024-01-22T06:14:18.288Z,34.46
2024-01-22T06:15:18.382Z,34.80
2024-01-22T06:16:18.332Z,34.79
2024-01-22T06:17:18.374Z,35.00
2024-01-22T06:18:18.442Z,35.17
2024-01-22T06:19:18.465Z,35.09
2024-01-22T06:20:18.441Z,35.48
2024-01-22T06:21:18.497Z,35.86
2024-01-22T06:22:18.605Z,35.94
2024-01-22T06:23:18.570Z,36.21
2024-01-22T06:24:18.748Z,36.22
2024-01-22T06:25:18.575Z,36.57
2024-01-22T06:26:18.865Z,36.20
2024-01-22T06:27:18.806Z,36.90
2024-01-22T06:28:18.635Z,36.74
2024-01-22T06:29:18.613Z,36.91
2024-01-22T06:30:18.707Z,35.47
2024-01-22T06:31:18.758Z,36.18
2024-01-22T06:32:18.802Z,37.05
2024-01-22T06:33:18.879Z,37.10
2024-01-22T06:34:19.025Z,36.85
2024-01-22T06:35:18.764Z,36.47
2024-01-22T06:36:19.000Z,34.54
2024-01-22T06:37:18.890Z,36.51
2024-01-22T06:38:18.945Z,36.05
2024-01-22T06:39:19.155Z,36.11
2024-01-22T06:40:19.079Z,36.73
2024-01-22T06:41:19.149Z,37.87
2024-01-22T06:42:27.465Z,37.74
2024-01-22T06:43:20.233Z,36.65
2024-01-22T06:44:21.122Z,36.56
2024-01-22T06:45:19.259Z,37.84
2024-01-22T06:46:19.235Z,38.44
2024-01-22T06:47:19.223Z,37.41
2024-01-22T06:48:19.369Z,38.15
2024-01-22T06:49:19.498Z,38.49
2024-01-22T06:50:19.281Z,39.32
2024-01-22T06:51:27.011Z,39.66
2024-01-22T06:52:20.255Z,39.78
2024-01-22T06:53:19.257Z,38.61
2024-01-22T06:54:20.857Z,39.10
2024-01-22T06:55:19.219Z,41.04
2024-01-22T06:56:19.220Z,37.51
2024-01-22T06:57:19.368Z,37.17
2024-01-22T06:58:19.227Z,37.61
2024-01-22T06:59:19.241Z,38.61
2024-01-22T07:00:19.275Z,38.79
2024-01-22T07:01:19.282Z,38.56
2024-01-22T07:02:19.246Z,40.54
2024-01-22T07:03:19.267Z,37.89
2024-01-22T07:04:19.296Z,42.73
2024-01-22T07:05:19.308Z,42.15
2024-01-22T07:06:22.231Z,41.86
2024-01-22T07:07:19.256Z,41.58
2024-01-22T07:08:19.279Z,41.57
2024-01-22T07:09:19.284Z,41.25
2024-01-22T07:10:19.257Z,41.44
2024-01-22T07:11:19.258Z,41.08
2024-01-22T07:12:19.317Z,41.56
2024-01-22T07:13:19.277Z,41.74
2024-01-22T07:14:19.263Z,41.49
2024-01-22T07:15:19.461Z,41.52
2024-01-22T07:16:19.254Z,42.23
2024-01-22T07:17:19.248Z,42.32
2024-01-22T07:18:19.483Z,41.16
2024-01-22T07:19:19.445Z,41.99
2024-01-22T07:20:19.273Z,42.24
2024-01-22T07:21:19.427Z,42.42
2024-01-22T07:22:19.285Z,43.07
2024-01-22T07:23:19.288Z,42.82
2024-01-22T07:24:19.362Z,43.14
2024-01-22T07:25:19.266Z,42.94
2024-01-22T07:26:19.252Z,42.50
2024-01-22T07:27:19.324Z,42.72
2024-01-22T07:28:19.599Z,43.37
2024-01-22T07:29:19.288Z,43.56
2024-01-22T07:30:19.330Z,43.12
2024-01-22T07:31:19.305Z,43.03
2024-01-22T07:32:19.269Z,43.78
2024-01-22T07:33:19.392Z,43.63
2024-01-22T07:34:19.443Z,43.49
2024-01-22T07:35:19.361Z,43.86
2024-01-22T07:36:19.529Z,44.39
2024-01-22T07:37:19.548Z,43.92
2024-01-22T07:38:19.527Z,43.53
2024-01-22T07:39:19.649Z,43.34
2024-01-22T07:40:19.644Z,43.20
2024-01-22T07:41:19.692Z,43.39
2024-01-22T07:42:19.753Z,43.47
2024-01-22T07:43:19.733Z,43.35
2024-01-22T07:44:19.738Z,43.55
2024-01-22T07:45:20.941Z,43.05
2024-01-22T07:46:19.851Z,44.71
2024-01-22T07:47:21.568Z,44.69
2024-01-22T07:48:19.934Z,46.26
2024-01-22T07:49:19.957Z,45.72
2024-01-22T07:50:19.831Z,45.94
2024-01-22T07:51:19.946Z,45.97
2024-01-22T07:52:19.842Z,45.70
2024-01-22T07:53:19.830Z,43.13
2024-01-22T07:54:19.849Z,42.62
2024-01-22T07:55:19.931Z,43.65
2024-01-22T07:56:19.837Z,42.26
2024-01-22T07:57:19.896Z,43.69
2024-01-22T07:58:19.843Z,44.03
2024-01-22T07:59:19.863Z,44.56
2024-01-22T08:00:19.868Z,44.29
2024-01-22T08:01:19.909Z,43.80
2024-01-22T08:02:19.860Z,44.14
2024-01-22T08:03:19.920Z,44.26
2024-01-22T08:04:19.883Z,44.30
2024-01-22T08:05:19.856Z,44.39
2024-01-22T08:06:19.899Z,44.23
2024-01-22T08:07:20.895Z,44.14
2024-01-22T08:08:19.845Z,44.28
2024-01-22T08:09:19.948Z,44.10
2024-01-22T08:10:19.849Z,44.07
2024-01-22T08:11:19.848Z,44.10
2024-01-22T08:12:19.951Z,44.07
2024-01-22T08:13:19.833Z,44.36
2024-01-22T08:14:19.836Z,44.36
2024-01-22T08:15:19.874Z,44.36
2024-01-22T08:16:19.889Z,44.44
2024-01-22T08:17:19.873Z,44.10
2024-01-22T08:18:19.964Z,44.25
2024-01-22T08:19:19.976Z,44.38
2024-01-22T08:20:20.432Z,44.38
2024-01-22T08:21:19.965Z,44.40
2024-01-22T08:22:19.876Z,44.38
2024-01-22T08:23:19.853Z,44.50
2024-01-22T08:24:19.914Z,44.21
2024-01-22T08:25:19.869Z,43.54
2024-01-22T08:26:19.844Z,44.08
2024-01-22T08:27:19.965Z,44.06
2024-01-22T08:28:19.978Z,44.50
2024-01-22T08:29:20.045Z,44.33
2024-01-22T08:30:20.166Z,44.44
2024-01-22T08:31:21.100Z,44.35
2024-01-22T08:32:20.181Z,44.31
2024-01-22T08:33:20.477Z,44.15
2024-01-22T08:34:20.440Z,44.44
2024-01-22T08:35:20.607Z,44.76
2024-01-22T08:36:20.481Z,44.68
2024-01-22T08:37:20.514Z,44.62
2024-01-22T08:38:20.579Z,44.87
2024-01-22T08:39:20.711Z,45.09
2024-01-22T08:40:20.723Z,45.16
2024-01-22T08:41:20.796Z,45.63
2024-01-22T08:42:20.854Z,45.16
2024-01-22T08:43:20.831Z,45.08
2024-01-22T08:44:20.768Z,45.30
2024-01-22T08:45:20.893Z,45.59
2024-01-22T08:46:20.915Z,45.51
2024-01-22T08:47:21.012Z,46.97
2024-01-22T08:48:21.164Z,45.11
2024-01-22T08:49:21.184Z,43.96
2024-01-22T08:50:21.209Z,45.53
2024-01-22T08:51:21.295Z,44.33
2024-01-22T08:52:21.340Z,45.12
2024-01-22T08:53:21.423Z,44.49
2024-01-22T08:54:21.595Z,44.12
2024-01-22T08:55:21.534Z,44.14
2024-01-22T08:56:21.627Z,43.61
2024-01-22T08:57:21.748Z,44.11
2024-01-22T08:58:21.789Z,44.38
2024-01-22T08:59:21.804Z,44.38
2024-01-22T09:00:21.998Z,44.45
2024-01-22T09:01:22.009Z,44.63
2024-01-22T09:02:22.009Z,45.09
2024-01-22T09:03:22.090Z,45.34
2024-01-22T09:04:22.180Z,45.46
2024-01-22T09:05:22.273Z,45.65
2024-01-22T09:06:22.305Z,45.59
2024-01-22T09:07:22.328Z,45.60
2024-01-22T09:08:22.393Z,45.24
2024-01-22T09:09:22.528Z,45.53
2024-01-22T09:10:22.527Z,45.97
2024-01-22T09:11:22.622Z,45.36
2024-01-22T09:12:22.746Z,45.46
2024-01-22T09:13:22.749Z,45.91
2024-01-22T09:14:22.806Z,46.04
2024-01-22T09:15:22.933Z,46.21
2024-01-22T09:16:22.967Z,46.43
2024-01-22T09:17:22.996Z,46.37
2024-01-22T09:18:23.183Z,46.35
2024-01-22T09:19:23.183Z,46.50
2024-01-22T09:20:23.212Z,46.81
2024-01-22T09:21:23.244Z,46.83
2024-01-22T09:22:23.281Z,46.88
2024-01-22T09:23:23.423Z,47.07
2024-01-22T09:24:23.413Z,46.82
2024-01-22T09:25:23.480Z,46.84
2024-01-22T09:26:23.543Z,46.82
2024-01-22T09:27:23.633Z,46.99
2024-01-22T09:28:23.689Z,47.07
2024-01-22T09:29:23.749Z,47.16
2024-01-22T09:30:23.834Z,47.15
2024-01-22T09:31:23.831Z,47.35
2024-01-22T09:32:23.974Z,47.39
2024-01-22T09:33:24.021Z,47.39
2024-01-22T09:34:24.146Z,47.43
2024-01-22T09:35:24.131Z,48.20
2024-01-22T09:36:24.177Z,48.00
2024-01-22T09:37:24.236Z,48.58
2024-01-22T09:38:24.329Z,48.66
2024-01-22T09:39:24.370Z,49.21
2024-01-22T09:40:28.452Z,49.10
2024-01-22T09:41:25.466Z,49.97
2024-01-22T09:42:24.479Z,50.16
2024-01-22T09:43:24.431Z,50.32
2024-01-22T09:44:24.410Z,49.91
2024-01-22T09:45:24.427Z,50.18
2024-01-22T09:46:24.422Z,50.29
2024-01-22T09:47:24.432Z,50.35
2024-01-22T09:48:24.495Z,50.53
2024-01-22T09:49:24.620Z,51.17
2024-01-22T09:50:24.421Z,51.19
2024-01-22T09:51:24.457Z,52.10
2024-01-22T09:52:31.106Z,51.05
2024-01-22T09:53:24.481Z,50.86
2024-01-22T09:54:24.520Z,50.63
2024-01-22T09:55:24.430Z,50.00
2024-01-22T09:56:24.438Z,50.21
2024-01-22T09:57:24.513Z,50.16
2024-01-22T09:58:24.420Z,49.93
2024-01-22T09:59:24.409Z,49.65
2024-01-22T10:00:24.422Z,49.28
2024-01-22T10:01:24.429Z,47.85
2024-01-22T10:02:24.462Z,47.24
2024-01-22T10:03:24.752Z,47.74
2024-01-22T10:04:24.505Z,46.26
2024-01-22T10:05:24.564Z,46.44
2024-01-22T10:06:24.487Z,47.03
2024-01-22T10:07:24.425Z,47.66
2024-01-22T10:08:24.435Z,48.31
2024-01-22T10:09:24.534Z,47.25
2024-01-22T10:10:24.466Z,46.47
2024-01-22T10:11:24.435Z,45.55
2024-01-22T10:12:24.457Z,45.04
2024-01-22T10:13:24.445Z,44.75
2024-01-22T10:14:24.458Z,45.77
2024-01-22T10:15:24.602Z,46.21
2024-01-22T10:16:24.445Z,46.34
2024-01-22T10:17:24.504Z,46.43
2024-01-22T10:18:24.525Z,47.09
2024-01-22T10:19:24.544Z,46.99
2024-01-22T10:20:24.463Z,46.58
2024-01-22T10:21:24.603Z,46.38
2024-01-22T10:22:24.435Z,46.03
2024-01-22T10:23:24.479Z,45.58
2024-01-22T10:24:24.507Z,45.62
2024-01-22T10:25:24.467Z,45.60
2024-01-22T10:26:24.460Z,46.03
2024-01-22T10:27:24.557Z,45.97
2024-01-22T10:28:24.454Z,46.35
2024-01-22T10:29:24.463Z,46.04
2024-01-22T10:30:24.536Z,45.67
2024-01-22T10:31:24.424Z,45.48
2024-01-22T10:32:24.455Z,45.76
2024-01-22T10:33:24.625Z,46.27
2024-01-22T10:34:24.525Z,46.37
2024-01-22T10:35:24.457Z,45.83
2024-01-22T10:36:24.513Z,45.73
2024-01-22T10:37:24.441Z,46.42
2024-01-22T10:38:24.485Z,46.80
2024-01-22T10:39:24.502Z,45.99
2024-01-22T10:40:24.459Z,46.64
2024-01-22T10:41:24.484Z,47.57
2024-01-22T10:42:24.517Z,46.62
2024-01-22T10:43:24.488Z,47.27
2024-01-22T10:44:24.468Z,47.97
2024-01-22T10:45:24.669Z,47.61
2024-01-22T10:46:24.500Z,48.61
2024-01-22T10:47:24.502Z,48.74
2024-01-22T10:48:32.349Z,47.89
2024-01-22T10:49:25.593Z,47.48
2024-01-22T10:50:24.645Z,48.26
2024-01-22T10:51:24.516Z,48.49
2024-01-22T10:52:24.463Z,47.38
2024-01-22T10:53:24.491Z,46.80
2024-01-22T10:54:24.503Z,46.80
2024-01-22T10:55:24.568Z,45.84
2024-01-22T10:56:24.463Z,45.50
2024-01-22T10:57:24.507Z,45.14
2024-01-22T10:58:24.494Z,45.63
2024-01-22T10:59:24.462Z,46.11
2024-01-22T11:00:24.495Z,46.41
2024-01-22T11:01:24.626Z,46.08
2024-01-22T11:02:24.474Z,46.42
2024-01-22T11:03:24.526Z,47.75
2024-01-22T11:04:24.533Z,47.22
2024-01-22T11:05:24.540Z,47.36
2024-01-22T11:06:24.634Z,47.25
2024-01-22T11:07:24.481Z,47.66
2024-01-22T11:08:24.516Z,47.64
2024-01-22T11:09:24.554Z,47.93
2024-01-22T11:10:24.482Z,47.17
2024-01-22T11:11:24.509Z,46.63
2024-01-22T11:12:24.532Z,46.76
2024-01-22T11:13:24.512Z,47.30
2024-01-22T11:14:24.483Z,47.12
2024-01-22T11:15:24.567Z,47.34
2024-01-22T11:16:24.656Z,48.76
2024-01-22T11:17:24.516Z,46.77
2024-01-22T11:18:24.616Z,47.46
2024-01-22T11:19:24.670Z,47.20
2024-01-22T11:20:24.561Z,47.97
2024-01-22T11:21:24.625Z,47.40
2024-01-22T11:22:24.729Z,47.23
2024-01-22T11:23:24.798Z,48.54
2024-01-22T11:24:24.938Z,47.24
2024-01-22T11:25:24.896Z,47.47
2024-01-22T11:26:24.985Z,49.03
2024-01-22T11:27:25.122Z,48.71
2024-01-22T11:28:25.124Z,48.01
2024-01-22T11:29:25.163Z,47.67
2024-01-22T11:30:25.311Z,48.75
2024-01-22T11:31:25.269Z,49.92
2024-01-22T11:32:25.400Z,49.34
2024-01-22T11:33:25.652Z,47.69
2024-01-22T11:34:25.510Z,48.40
2024-01-22T11:35:25.819Z,48.44
2024-01-22T11:36:25.698Z,49.20
2024-01-22T11:37:25.671Z,49.08
2024-01-22T11:38:25.725Z,49.86
2024-01-22T11:39:25.833Z,49.66
2024-01-22T11:40:25.811Z,49.48
2024-01-22T11:41:25.880Z,46.40
2024-01-22T11:42:25.931Z,47.60
2024-01-22T11:43:25.991Z,48.02
2024-01-22T11:44:25.989Z,48.39
2024-01-22T11:45:30.233Z,48.11
2024-01-22T11:46:27.061Z,48.39
2024-01-22T11:47:26.074Z,48.26
2024-01-22T11:48:26.107Z,48.02
2024-01-22T11:49:26.059Z,46.41
2024-01-22T11:50:26.056Z,46.96
2024-01-22T11:51:26.044Z,47.49
2024-01-22T11:52:26.097Z,47.74
2024-01-22T11:53:26.021Z,47.71
2024-01-22T11:54:27.119Z,47.81
2024-01-22T11:55:26.013Z,48.11
2024-01-22T11:56:26.027Z,48.38
2024-01-22T11:57:26.151Z,47.14
2024-01-22T11:58:26.062Z,47.86
2024-01-22T11:59:26.083Z,48.53
2024-01-22T12:00:26.335Z,48.41
2024-01-22T12:01:26.206Z,48.07
2024-01-22T12:02:26.233Z,48.24
2024-01-22T12:03:26.489Z,47.01
2024-01-22T12:04:26.351Z,47.75
2024-01-22T12:05:26.380Z,47.17
2024-01-22T12:06:26.473Z,47.73
2024-01-22T12:07:26.468Z,48.00
2024-01-22T12:08:26.516Z,47.86
2024-01-22T12:09:26.725Z,48.08
2024-01-22T12:10:26.833Z,48.18
2024-01-22T12:11:26.651Z,47.13
2024-01-22T12:12:26.752Z,47.42
2024-01-22T12:13:26.779Z,47.73
2024-01-22T12:14:26.827Z,48.49
2024-01-22T12:15:27.042Z,48.33
2024-01-22T12:16:26.919Z,48.25
2024-01-22T12:17:26.944Z,48.26
2024-01-22T12:18:27.117Z,48.28
2024-01-22T12:19:27.030Z,48.33
2024-01-22T12:20:27.114Z,48.23
2024-01-22T12:21:27.114Z,48.51
2024-01-22T12:22:27.097Z,48.72
2024-01-22T12:23:27.167Z,48.07
2024-01-22T12:24:27.150Z,48.52
2024-01-22T12:25:27.140Z,49.30
2024-01-22T12:26:27.116Z,49.36
2024-01-22T12:27:27.184Z,49.72
2024-01-22T12:28:27.176Z,49.21
2024-01-22T12:29:27.567Z,49.11
2024-01-22T12:30:27.208Z,50.00
2024-01-22T12:31:27.141Z,49.89
2024-01-22T12:32:27.158Z,49.95
2024-01-22T12:33:28.985Z,49.44
2024-01-22T12:34:27.382Z,49.48
2024-01-22T12:35:27.377Z,49.59
2024-01-22T12:36:27.498Z,48.95
2024-01-22T12:37:27.450Z,48.72
2024-01-22T12:38:27.441Z,47.25
2024-01-22T12:39:27.508Z,46.72
2024-01-22T12:40:27.566Z,48.33
2024-01-22T12:41:27.465Z,47.89
2024-01-22T12:42:27.507Z,47.19
2024-01-22T12:43:27.500Z,48.06
2024-01-22T12:44:27.508Z,46.54
2024-01-22T12:45:27.714Z,45.78
2024-01-22T12:46:27.559Z,45.53
2024-01-22T12:47:27.864Z,47.34
2024-01-22T12:48:27.745Z,46.38
2024-01-22T12:49:27.765Z,45.28
2024-01-22T12:50:27.691Z,44.99
2024-01-22T12:51:28.278Z,46.35
2024-01-22T12:52:27.738Z,46.84
2024-01-22T12:53:28.468Z,45.28